createdAt,value
2022-11-13T00:01:16.425Z,100.00
2022-11-13T00:04:02.169Z,100.00
2022-11-13T00:06:47.390Z,100.00
2022-11-13T00:09:32.724Z,100.00
2022-11-13T00:12:18.009Z,100.00
2022-11-13T00:15:03.644Z,100.00
2022-11-13T00:17:48.571Z,100.00
2022-11-13T00:20:33.887Z,100.00
2022-11-13T00:23:19.222Z,100.00
2022-11-13T00:26:10.171Z,100.00
2022-11-13T00:28:57.811Z,100.00
2022-11-13T00:31:43.194Z,100.00
2022-11-13T00:37:33.770Z,100.00
2022-11-13T00:40:19.076Z,100.00
2022-11-13T00:43:04.211Z,100.00
2022-11-13T00:45:49.326Z,100.00
2022-11-13T00:48:35.292Z,100.00
2022-11-13T00:51:20.288Z,100.00
2022-11-13T00:54:05.551Z,100.00
2022-11-13T00:56:50.667Z,100.00
2022-11-13T00:59:35.914Z,100.00
2022-11-13T01:02:21.109Z,100.00
2022-11-13T01:05:06.657Z,100.00
2022-11-13T01:07:51.879Z,100.00
2022-11-13T01:10:41.250Z,100.00
2022-11-13T01:13:26.416Z,100.00
2022-11-13T01:16:13.603Z,100.00
2022-11-13T01:18:58.630Z,100.00
2022-11-13T01:21:44.013Z,100.00
2022-11-13T01:24:29.197Z,100.00
2022-11-13T01:27:15.957Z,100.00
2022-11-13T01:30:01.911Z,100.00
2022-11-13T01:32:47.102Z,100.00
2022-11-13T01:35:32.386Z,100.00
2022-11-13T01:38:17.688Z,100.00
2022-11-13T01:41:03.397Z,100.00
2022-11-13T01:43:48.682Z,100.00
2022-11-13T01:46:36.154Z,100.00
2022-11-13T01:49:26.568Z,100.00
2022-11-13T01:52:21.383Z,100.00
2022-11-13T01:55:13.436Z,100.00
2022-11-13T01:57:59.154Z,100.00
2022-11-13T02:00:44.172Z,100.00
2022-11-13T02:03:29.467Z,100.00
2022-11-13T02:06:15.286Z,100.00
2022-11-13T02:09:00.835Z,100.00
2022-11-13T02:11:46.374Z,100.00
2022-11-13T02:14:31.933Z,100.00
2022-11-13T02:17:26.468Z,100.00
2022-11-13T02:20:12.365Z,100.00
2022-11-13T02:23:16.495Z,100.00
2022-11-13T02:26:03.041Z,100.00
2022-11-13T02:28:48.132Z,100.00
2022-11-13T02:31:33.334Z,100.00
2022-11-13T02:34:18.639Z,100.00
2022-11-13T02:37:03.843Z,100.00
2022-11-13T02:39:49.125Z,100.00
2022-11-13T02:42:34.333Z,100.00
2022-11-13T02:45:19.714Z,100.00
2022-11-13T02:48:05.996Z,100.00
2022-11-13T02:50:51.113Z,100.00
2022-11-13T02:53:36.589Z,100.00
2022-11-13T02:56:21.887Z,100.00
2022-11-13T02:59:06.928Z,100.00
2022-11-13T03:01:52.365Z,100.00
2022-11-13T03:05:05.221Z,100.00
2022-11-13T03:07:43.155Z,100.00
2022-11-13T03:10:28.461Z,100.00
2022-11-13T03:13:13.763Z,100.00
2022-11-13T03:16:09.910Z,100.00
2022-11-13T03:18:56.207Z,100.00
2022-11-13T03:21:41.298Z,100.00
2022-11-13T03:24:26.537Z,100.00
2022-11-13T03:27:12.445Z,100.00
2022-11-13T03:29:57.628Z,100.00
2022-11-13T03:32:42.813Z,100.00
2022-11-13T03:35:31.857Z,100.00
2022-11-13T03:38:19.037Z,100.00
2022-11-13T03:41:04.828Z,100.00
2022-11-13T03:43:50.169Z,100.00
2022-11-13T03:46:35.377Z,100.00
2022-11-13T03:49:20.795Z,100.00
2022-11-13T03:52:06.031Z,100.00
2022-11-13T03:54:51.435Z,100.00
2022-11-13T03:57:36.625Z,100.00
2022-11-13T04:00:22.040Z,100.00
2022-11-13T04:03:07.466Z,100.00
2022-11-13T04:05:52.695Z,100.00
2022-11-13T04:08:38.157Z,100.00
2022-11-13T04:11:23.457Z,100.00
2022-11-13T04:14:08.836Z,100.00
2022-11-13T04:16:54.192Z,100.00
2022-11-13T04:19:39.433Z,100.00
2022-11-13T04:22:24.710Z,100.00
2022-11-13T04:25:10.088Z,100.00
2022-11-13T04:27:55.504Z,100.00
2022-11-13T04:30:40.733Z,100.00
2022-11-13T04:33:25.898Z,100.00
2022-11-13T04:36:11.341Z,100.00
2022-11-13T04:38:56.481Z,100.00
2022-11-13T04:42:00.367Z,100.00
2022-11-13T04:44:45.780Z,100.00
2022-11-13T04:47:31.123Z,100.00
2022-11-13T04:50:17.522Z,100.00
2022-11-13T04:53:02.736Z,100.00
2022-11-13T04:55:47.803Z,100.00
2022-11-13T04:58:32.994Z,100.00
2022-11-13T05:01:18.292Z,100.00
2022-11-13T05:04:04.132Z,100.00
2022-11-13T05:06:49.581Z,100.00
2022-11-13T05:09:35.235Z,100.00
2022-11-13T05:12:21.222Z,100.00
2022-11-13T05:15:06.655Z,100.00
2022-11-13T05:17:52.137Z,100.00
2022-11-13T05:20:37.385Z,100.00
2022-11-13T05:23:22.651Z,100.00
2022-11-13T05:26:12.342Z,100.00
2022-11-13T05:28:58.966Z,100.00
2022-11-13T05:31:44.442Z,100.00
2022-11-13T05:34:29.483Z,100.00
2022-11-13T05:37:14.795Z,100.00
2022-11-13T05:40:00.033Z,100.00
2022-11-13T05:42:45.247Z,100.00
2022-11-13T05:45:30.700Z,100.00
2022-11-13T05:48:15.937Z,100.00
2022-11-13T05:51:05.717Z,100.00
2022-11-13T05:53:51.356Z,100.00
2022-11-13T05:56:36.955Z,100.00
2022-11-13T05:59:21.907Z,100.00
2022-11-13T06:02:07.363Z,100.00
2022-11-13T06:04:56.390Z,100.00
2022-11-13T06:07:41.571Z,100.00
2022-11-13T06:10:26.994Z,100.00
2022-11-13T06:13:12.195Z,100.00
2022-11-13T06:16:02.853Z,100.00
2022-11-13T06:18:49.105Z,100.00
2022-11-13T06:21:36.848Z,100.00
2022-11-13T06:24:21.832Z,100.00
2022-11-13T06:27:07.223Z,100.00
2022-11-13T06:29:52.464Z,100.00
2022-11-13T06:32:37.771Z,100.00
2022-11-13T06:35:22.946Z,100.00
2022-11-13T06:38:08.344Z,100.00
2022-11-13T06:40:53.561Z,100.00
2022-11-13T06:43:38.913Z,100.00
2022-11-13T06:46:26.690Z,100.00
2022-11-13T06:49:11.989Z,100.00
2022-11-13T06:51:57.228Z,100.00
2022-11-13T06:54:42.541Z,100.00
2022-11-13T06:57:27.713Z,100.00
2022-11-13T07:00:13.778Z,100.00
2022-11-13T07:02:58.653Z,100.00
2022-11-13T07:05:44.496Z,100.00
2022-11-13T07:08:29.831Z,100.00
2022-11-13T07:11:20.522Z,100.00
2022-11-13T07:14:05.571Z,100.00
2022-11-13T07:17:08.493Z,100.00
2022-11-13T07:19:54.123Z,100.00
2022-11-13T07:22:39.353Z,100.00
2022-11-13T07:25:25.481Z,100.00
2022-11-13T07:28:10.635Z,100.00
2022-11-13T07:30:59.424Z,100.00
2022-11-13T07:33:44.908Z,100.00
2022-11-13T07:36:29.937Z,100.00
2022-11-13T07:39:15.187Z,100.00
2022-11-13T07:42:00.504Z,100.00
2022-11-13T07:44:54.485Z,100.00
2022-11-13T07:47:40.148Z,100.00
2022-11-13T07:50:27.505Z,100.00
2022-11-13T07:53:12.599Z,100.00
2022-11-13T07:56:01.092Z,100.00
2022-11-13T07:58:46.148Z,100.00
2022-11-13T08:01:31.367Z,100.00
2022-11-13T08:04:16.975Z,100.00
2022-11-13T08:07:02.221Z,100.00
2022-11-13T08:09:47.471Z,100.00
2022-11-13T08:12:32.884Z,100.00
2022-11-13T08:15:18.141Z,100.00
2022-11-13T08:18:04.788Z,100.00
2022-11-13T08:20:49.848Z,100.00
2022-11-13T08:23:35.166Z,100.00
2022-11-13T08:26:20.556Z,100.00
2022-11-13T08:29:05.761Z,100.00
2022-11-13T08:31:50.988Z,100.00
2022-11-13T08:34:37.345Z,100.00
2022-11-13T08:37:22.704Z,100.00
2022-11-13T08:40:08.540Z,100.00
2022-11-13T08:42:58.234Z,100.00
2022-11-13T08:45:46.594Z,100.00
2022-11-13T08:48:32.162Z,100.00
2022-11-13T08:51:18.334Z,100.00
2022-11-13T08:54:04.028Z,100.00
2022-11-13T08:56:54.621Z,100.00
2022-11-13T08:59:41.998Z,100.00
2022-11-13T09:02:27.564Z,100.00
2022-11-13T09:05:12.735Z,100.00
2022-11-13T09:08:00.560Z,100.00
2022-11-13T09:10:45.599Z,100.00
2022-11-13T09:13:32.593Z,100.00
2022-11-13T09:16:18.262Z,100.00
2022-11-13T09:19:04.389Z,100.00
2022-11-13T09:21:51.423Z,100.00
2022-11-13T09:24:37.041Z,100.00
2022-11-13T09:27:23.285Z,100.00
2022-11-13T09:30:09.374Z,100.00
2022-11-13T09:32:57.254Z,100.00
2022-11-13T09:35:43.580Z,99.96
2022-11-13T09:38:31.940Z,98.61
2022-11-13T09:41:31.563Z,98.05
2022-11-13T09:44:23.439Z,97.04
2022-11-13T09:47:31.735Z,95.29
2022-11-13T09:50:23.809Z,94.40
2022-11-13T09:53:12.927Z,93.90
2022-11-13T09:56:20.164Z,92.11
2022-11-13T09:59:22.489Z,88.77
2022-11-13T10:02:46.558Z,83.39
2022-11-13T10:05:56.439Z,80.21
2022-11-13T10:09:00.523Z,77.58
2022-11-13T10:11:54.813Z,76.81
2022-11-13T10:14:52.970Z,74.76
2022-11-13T10:17:40.379Z,74.69
2022-11-13T10:20:38.736Z,76.12
2022-11-13T10:23:37.866Z,78.24
2022-11-13T10:26:27.421Z,79.05
2022-11-13T10:29:18.624Z,79.35
2022-11-13T10:32:23.703Z,77.53
2022-11-13T10:35:31.973Z,77.92
2022-11-13T10:38:27.979Z,79.33
2022-11-13T10:41:17.346Z,76.95
2022-11-13T10:44:35.479Z,77.13
2022-11-13T10:50:31.969Z,77.19
2022-11-13T10:53:19.186Z,77.94
2022-11-13T10:56:31.642Z,77.38
2022-11-13T10:59:19.383Z,77.28
2022-11-13T11:02:27.660Z,76.18
2022-11-13T11:05:19.456Z,74.57
2022-11-13T11:08:09.932Z,74.17
2022-11-13T11:11:19.427Z,72.04
2022-11-13T11:14:10.161Z,70.92
2022-11-13T11:16:56.321Z,70.29
2022-11-13T11:19:44.806Z,71.02
2022-11-13T11:22:34.285Z,70.67
2022-11-13T11:25:26.850Z,67.69
2022-11-13T11:28:25.142Z,65.22
2022-11-13T11:31:26.885Z,62.34
2022-11-13T11:34:19.574Z,59.34
2022-11-13T11:37:14.595Z,56.55
2022-11-13T11:40:25.819Z,55.94
2022-11-13T11:43:37.177Z,56.48
2022-11-13T11:46:24.613Z,54.74
2022-11-13T11:49:10.926Z,53.14
2022-11-13T11:52:22.926Z,50.53
2022-11-13T11:55:31.433Z,49.89
2022-11-13T11:58:27.784Z,48.31
2022-11-13T12:01:25.134Z,47.56
2022-11-13T12:04:19.250Z,46.95
2022-11-13T12:07:22.598Z,46.36
2022-11-13T12:10:30.233Z,45.06
2022-11-13T12:13:32.511Z,46.02
2022-11-13T12:16:25.543Z,46.55
2022-11-13T12:19:30.071Z,44.70
2022-11-13T12:22:30.862Z,44.52
2022-11-13T12:25:27.807Z,44.27
2022-11-13T12:28:42.803Z,43.84
2022-11-13T12:31:49.689Z,43.42
2022-11-13T12:34:42.426Z,43.14
2022-11-13T12:37:48.996Z,41.91
2022-11-13T12:40:49.264Z,42.33
2022-11-13T12:44:08.467Z,42.02
2022-11-13T12:46:56.256Z,41.58
2022-11-13T12:49:41.329Z,41.47
2022-11-13T12:52:26.608Z,41.15
2022-11-13T12:55:31.110Z,40.90
2022-11-13T12:58:26.653Z,40.55
2022-11-13T13:01:12.049Z,39.82
2022-11-13T13:04:28.260Z,40.68
2022-11-13T13:07:22.972Z,40.01
2022-11-13T13:10:11.284Z,39.33
2022-11-13T13:13:22.664Z,39.78
2022-11-13T13:16:10.308Z,38.66
2022-11-13T13:19:24.726Z,38.01
2022-11-13T13:22:30.771Z,37.72
2022-11-13T13:25:34.039Z,37.51
2022-11-13T13:28:23.838Z,37.39
2022-11-13T13:31:12.306Z,37.17
2022-11-13T13:34:19.108Z,36.77
2022-11-13T13:37:15.638Z,37.14
2022-11-13T13:40:33.195Z,36.71
2022-11-13T13:43:51.282Z,37.22
2022-11-13T13:46:36.893Z,36.79
2022-11-13T13:49:24.310Z,37.11
2022-11-13T13:52:15.092Z,36.50
2022-11-13T13:55:04.033Z,36.78
2022-11-13T13:57:49.159Z,36.23
2022-11-13T14:00:41.026Z,36.61
2022-11-13T14:03:33.930Z,36.14
2022-11-13T14:06:20.772Z,36.05
2022-11-13T14:09:10.253Z,34.95
2022-11-13T14:12:21.007Z,34.90
2022-11-13T14:15:28.165Z,35.29
2022-11-13T14:18:15.953Z,35.29
2022-11-13T14:21:19.687Z,34.99
2022-11-13T14:24:05.832Z,34.65
2022-11-13T14:26:54.296Z,34.59
2022-11-13T14:29:49.071Z,35.19
2022-11-13T14:32:45.741Z,35.03
2022-11-13T14:35:32.143Z,34.53
2022-11-13T14:38:22.318Z,34.65
2022-11-13T14:41:07.660Z,34.89
2022-11-13T14:43:52.882Z,35.40
2022-11-13T14:46:45.940Z,36.01
2022-11-13T14:49:37.033Z,36.04
2022-11-13T14:52:27.786Z,36.53
2022-11-13T14:55:31.464Z,39.19
2022-11-13T14:58:30.812Z,42.11
2022-11-13T15:01:22.004Z,43.60
2022-11-13T15:04:07.494Z,44.73
2022-11-13T15:06:56.045Z,45.69
2022-11-13T15:09:41.372Z,46.81
2022-11-13T15:12:26.662Z,48.04
2022-11-13T15:15:18.992Z,48.90
2022-11-13T15:18:05.440Z,51.01
2022-11-13T15:20:50.621Z,51.11
2022-11-13T15:23:35.873Z,53.15
2022-11-13T15:26:21.204Z,54.99
2022-11-13T15:29:06.917Z,56.01
2022-11-13T15:31:52.311Z,56.90
2022-11-13T15:34:37.625Z,57.16
2022-11-13T15:37:22.899Z,56.04
2022-11-13T15:40:08.575Z,57.72
2022-11-13T15:42:53.851Z,60.56
2022-11-13T15:45:43.959Z,63.92
2022-11-13T15:48:29.956Z,65.96
2022-11-13T15:51:26.324Z,68.20
2022-11-13T15:54:20.339Z,68.02
2022-11-13T15:57:06.464Z,68.68
2022-11-13T15:59:52.148Z,67.48
2022-11-13T16:02:37.599Z,69.82
2022-11-13T16:05:25.843Z,71.75
2022-11-13T16:08:13.481Z,74.91
2022-11-13T16:10:58.769Z,76.59
2022-11-13T16:13:44.413Z,76.26
2022-11-13T16:16:36.173Z,76.29
2022-11-13T16:19:24.162Z,77.63
2022-11-13T16:22:21.608Z,76.16
2022-11-13T16:25:07.353Z,77.05
2022-11-13T16:27:53.044Z,79.82
2022-11-13T16:30:37.959Z,80.66
2022-11-13T16:33:23.589Z,81.74
2022-11-13T16:36:16.991Z,82.57
2022-11-13T16:39:03.784Z,82.87
2022-11-13T16:41:49.109Z,82.69
2022-11-13T16:44:34.446Z,84.32
2022-11-13T16:47:24.806Z,81.96
2022-11-13T16:50:24.744Z,84.54
2022-11-13T16:53:10.502Z,84.42
2022-11-13T16:55:55.670Z,82.91
2022-11-13T16:58:41.058Z,83.21
2022-11-13T17:01:26.623Z,85.03
2022-11-13T17:04:14.842Z,82.64
2022-11-13T17:07:00.338Z,83.48
2022-11-13T17:09:46.047Z,86.26
2022-11-13T17:12:32.016Z,86.14
2022-11-13T17:15:18.523Z,85.07
2022-11-13T17:18:03.615Z,86.60
2022-11-13T17:20:52.570Z,87.41
2022-11-13T17:23:37.944Z,86.63
2022-11-13T17:26:23.593Z,84.68
2022-11-13T17:29:08.782Z,85.54
2022-11-13T17:31:54.082Z,87.25
2022-11-13T17:34:39.189Z,86.98
2022-11-13T17:37:25.450Z,85.23
2022-11-13T17:40:11.673Z,86.77
2022-11-13T17:42:56.706Z,89.32
2022-11-13T17:45:42.023Z,88.59
2022-11-13T17:48:27.227Z,88.72
2022-11-13T17:51:14.591Z,88.62
2022-11-13T17:53:59.902Z,88.61
2022-11-13T17:56:45.891Z,89.73
2022-11-13T17:59:31.316Z,89.09
2022-11-13T18:02:16.635Z,88.32
2022-11-13T18:05:04.245Z,87.84
2022-11-13T18:07:49.711Z,87.35
2022-11-13T18:10:35.094Z,87.97
2022-11-13T18:13:20.583Z,87.83
2022-11-13T18:16:11.656Z,89.83
2022-11-13T18:18:58.430Z,88.06
2022-11-13T18:21:43.973Z,89.75
2022-11-13T18:24:29.478Z,90.15
2022-11-13T18:27:14.593Z,91.43
2022-11-13T18:30:00.125Z,92.29
2022-11-13T18:32:45.252Z,90.10
2022-11-13T18:35:30.477Z,90.46
2022-11-13T18:38:16.010Z,91.37
2022-11-13T18:41:15.331Z,91.35
2022-11-13T18:44:01.249Z,91.72
2022-11-13T18:46:46.592Z,92.16
2022-11-13T18:49:31.823Z,92.35
2022-11-13T18:52:17.023Z,93.91
2022-11-13T18:55:03.042Z,92.79
2022-11-13T18:57:48.681Z,93.17
2022-11-13T19:00:33.780Z,94.10
2022-11-13T19:03:19.077Z,92.75
2022-11-13T19:06:09.808Z,91.65
2022-11-13T19:08:59.830Z,91.03
2022-11-13T19:11:45.599Z,91.27
2022-11-13T19:14:30.991Z,92.71
2022-11-13T19:17:16.255Z,92.98
2022-11-13T19:20:01.694Z,93.55
2022-11-13T19:22:46.930Z,92.21
2022-11-13T19:25:32.341Z,93.35
2022-11-13T19:28:17.554Z,93.94
2022-11-13T19:31:11.345Z,94.67
2022-11-13T19:33:58.383Z,95.03
2022-11-13T19:36:45.125Z,93.49
2022-11-13T19:39:30.803Z,94.58
2022-11-13T19:42:16.062Z,94.92
2022-11-13T19:45:01.339Z,95.30
2022-11-13T19:47:46.814Z,95.01
2022-11-13T19:50:31.940Z,96.40
2022-11-13T19:53:17.460Z,94.77
2022-11-13T19:56:03.771Z,95.60
2022-11-13T19:58:50.539Z,96.20
2022-11-13T20:01:35.736Z,95.14
2022-11-13T20:04:21.287Z,94.35
2022-11-13T20:07:07.138Z,94.11
2022-11-13T20:09:52.377Z,94.28
2022-11-13T20:12:37.590Z,94.12
2022-11-13T20:15:22.955Z,94.22
2022-11-13T20:18:08.517Z,93.38
2022-11-13T20:20:55.147Z,93.78
2022-11-13T20:23:40.674Z,95.31
2022-11-13T20:26:26.211Z,95.06
2022-11-13T20:29:11.143Z,95.51
2022-11-13T20:31:56.527Z,96.55
2022-11-13T20:34:41.937Z,96.44
2022-11-13T20:37:27.182Z,95.45
2022-11-13T20:40:12.442Z,96.83
2022-11-13T20:42:57.729Z,96.66
2022-11-13T20:45:42.989Z,96.63
2022-11-13T20:48:28.660Z,95.58
2022-11-13T20:51:21.473Z,95.90
2022-11-13T20:54:06.812Z,96.29
2022-11-13T20:56:52.253Z,96.31
2022-11-13T20:59:37.410Z,96.57
2022-11-13T21:02:22.752Z,97.08
2022-11-13T21:05:08.024Z,96.44
2022-11-13T21:07:53.763Z,96.04
2022-11-13T21:10:38.837Z,95.94
2022-11-13T21:13:23.988Z,95.72
2022-11-13T21:16:09.883Z,95.89
2022-11-13T21:18:59.655Z,95.66
2022-11-13T21:21:44.865Z,95.59
2022-11-13T21:24:30.172Z,95.71
2022-11-13T21:27:15.359Z,95.00
2022-11-13T21:30:01.164Z,96.28
2022-11-13T21:32:46.464Z,96.31
2022-11-13T21:35:31.673Z,96.01
2022-11-13T21:38:18.017Z,96.43
2022-11-13T21:41:21.482Z,96.13
2022-11-13T21:44:10.502Z,96.02
2022-11-13T21:46:55.530Z,97.14
2022-11-13T21:49:40.984Z,96.89
2022-11-13T21:52:25.921Z,96.82
2022-11-13T21:55:11.279Z,97.52
2022-11-13T21:57:56.513Z,96.49
2022-11-13T22:00:41.739Z,96.31
2022-11-13T22:03:28.352Z,96.89
2022-11-13T22:06:22.904Z,97.09
2022-11-13T22:09:14.843Z,97.09
2022-11-13T22:11:59.971Z,96.47
2022-11-13T22:14:45.246Z,96.77
2022-11-13T22:17:30.492Z,96.31
2022-11-13T22:20:15.950Z,95.81
2022-11-13T22:23:05.510Z,96.39
2022-11-13T22:25:54.559Z,96.21
2022-11-13T22:28:43.876Z,95.89
2022-11-13T22:31:31.245Z,96.11
2022-11-13T22:34:16.326Z,96.19
2022-11-13T22:37:02.297Z,95.87
2022-11-13T22:39:47.696Z,95.93
2022-11-13T22:42:33.055Z,96.66
2022-11-13T22:45:23.611Z,97.18
2022-11-13T22:48:11.043Z,96.90
2022-11-13T22:50:56.909Z,97.53
2022-11-13T22:53:43.848Z,98.10
2022-11-13T22:56:31.391Z,97.98
2022-11-13T22:59:17.113Z,98.31
2022-11-13T23:02:02.620Z,98.25
2022-11-13T23:04:47.870Z,97.82
2022-11-13T23:07:33.183Z,99.05
2022-11-13T23:10:18.698Z,99.11
2022-11-13T23:13:03.591Z,98.86
2022-11-13T23:15:48.848Z,98.71
2022-11-13T23:18:34.078Z,98.15
2022-11-13T23:21:19.845Z,98.56
2022-11-13T23:24:05.271Z,98.34
2022-11-13T23:26:50.349Z,98.52
2022-11-13T23:29:35.659Z,98.49
2022-11-13T23:32:20.932Z,98.28
2022-11-13T23:35:06.583Z,98.71
2022-11-13T23:37:51.912Z,98.35
2022-11-13T23:40:37.474Z,98.30
2022-11-13T23:43:36.494Z,97.91
2022-11-13T23:46:29.110Z,97.58
2022-11-13T23:49:14.413Z,97.89
2022-11-13T23:51:59.532Z,98.49
2022-11-13T23:54:44.860Z,98.70
2022-11-13T23:57:29.994Z,98.00
